sensor_id;sensor_type;location;lat;lon;timestamp;pressure;altitude;pressure_sealevel;temperature;humidity
67038;BME280;53940;53.204;6.590;2024-03-17T00:01:25;102301.66;;;22.10;54.77
67038;BME280;53940;53.204;6.590;2024-03-17T00:04:25;102308.03;;;22.09;54.39
67038;BME280;53940;53.204;6.590;2024-03-17T00:07:27;102316.06;;;22.09;54.52
67038;BME280;53940;53.204;6.590;2024-03-17T00:10:27;102300.06;;;22.07;54.54
67038;BME280;53940;53.204;6.590;2024-03-17T00:13:28;102302.75;;;22.07;54.73
67038;BME280;53940;53.204;6.590;2024-03-17T00:16:28;102301.88;;;22.07;54.50
67038;BME280;53940;53.204;6.590;2024-03-17T00:19:28;102301.88;;;22.07;54.51
67038;BME280;53940;53.204;6.590;2024-03-17T00:22:29;102302.84;;;22.06;54.59
67038;BME280;53940;53.204;6.590;2024-03-17T00:25:29;102303.84;;;22.05;54.59
67038;BME280;53940;53.204;6.590;2024-03-17T00:28:29;102300.31;;;22.04;54.45
67038;BME280;53940;53.204;6.590;2024-03-17T00:31:31;102302.13;;;22.04;54.71
67038;BME280;53940;53.204;6.590;2024-03-17T00:34:32;102302.13;;;22.04;54.84
67038;BME280;53940;53.204;6.590;2024-03-17T00:37:32;102302.13;;;22.04;54.62
67038;BME280;53940;53.204;6.590;2024-03-17T00:40:33;102297.72;;;22.03;54.63
67038;BME280;53940;53.204;6.590;2024-03-17T00:43:33;102287.97;;;22.02;54.77
67038;BME280;53940;53.204;6.590;2024-03-17T00:46:33;102304.06;;;22.02;54.72
67038;BME280;53940;53.204;6.590;2024-03-17T00:49:34;102302.34;;;22.01;54.77
67038;BME280;53940;53.204;6.590;2024-03-17T00:52:34;102296.97;;;22.01;54.84
67038;BME280;53940;53.204;6.590;2024-03-17T00:55:35;102289.06;;;21.99;54.79
67038;BME280;53940;53.204;6.590;2024-03-17T00:58:35;102282.81;;;21.99;54.75
67038;BME280;53940;53.204;6.590;2024-03-17T01:01:36;102284.53;;;22.00;54.58
67038;BME280;53940;53.204;6.590;2024-03-17T01:04:36;102281.97;;;21.98;54.85
67038;BME280;53940;53.204;6.590;2024-03-17T01:07:36;102285.50;;;21.99;54.82
67038;BME280;53940;53.204;6.590;2024-03-17T01:10:38;102284.75;;;21.97;54.74
67038;BME280;53940;53.204;6.590;2024-03-17T01:13:39;102283.91;;;21.96;54.89
67038;BME280;53940;53.204;6.590;2024-03-17T01:16:41;102288.44;;;21.96;54.41
67038;BME280;53940;53.204;6.590;2024-03-17T01:19:41;102287.56;;;21.95;54.31
67038;BME280;53940;53.204;6.590;2024-03-17T01:22:42;102288.44;;;21.96;54.30
67038;BME280;53940;53.204;6.590;2024-03-17T01:25:43;102284.97;;;21.93;54.07
67038;BME280;53940;53.204;6.590;2024-03-17T01:28:43;102282.28;;;21.93;53.70
67038;BME280;53940;53.204;6.590;2024-03-17T01:31:44;102279.72;;;21.92;53.75
67038;BME280;53940;53.204;6.590;2024-03-17T01:34:44;102272.53;;;21.92;53.70
67038;BME280;53940;53.204;6.590;2024-03-17T01:37:44;102262.78;;;21.91;53.34
67038;BME280;53940;53.204;6.590;2024-03-17T01:40:45;102253.84;;;21.91;53.31
67038;BME280;53940;53.204;6.590;2024-03-17T01:43:45;102255.69;;;21.90;53.28
67038;BME280;53940;53.204;6.590;2024-03-17T01:46:45;102253.84;;;21.91;52.98
67038;BME280;53940;53.204;6.590;2024-03-17T01:49:47;102256.66;;;21.89;52.93
67038;BME280;53940;53.204;6.590;2024-03-17T01:52:47;102259.34;;;21.89;53.02
67038;BME280;53940;53.204;6.590;2024-03-17T01:55:49;102263.75;;;21.90;52.72
67038;BME280;53940;53.204;6.590;2024-03-17T01:58:49;102257.50;;;21.90;52.72
67038;BME280;53940;53.204;6.590;2024-03-17T02:01:50;102266.44;;;21.90;52.63
67038;BME280;53940;53.204;6.590;2024-03-17T02:04:51;102252.03;;;21.91;52.49
67038;BME280;53940;53.204;6.590;2024-03-17T02:07:51;102249.34;;;21.91;52.16
67038;BME280;53940;53.204;6.590;2024-03-17T02:10:54;102256.44;;;21.92;52.12
67038;BME280;53940;53.204;6.590;2024-03-17T02:13:56;102252.75;;;21.93;52.26
67038;BME280;53940;53.204;6.590;2024-03-17T02:16:56;102251.78;;;21.94;51.93
67038;BME280;53940;53.204;6.590;2024-03-17T02:19:56;102249.09;;;21.94;51.99
67038;BME280;53940;53.204;6.590;2024-03-17T02:22:57;102251.59;;;21.98;51.92
67038;BME280;53940;53.204;6.590;2024-03-17T02:25:57;102241.72;;;21.98;51.79
67038;BME280;53940;53.204;6.590;2024-03-17T02:28:57;102250.59;;;21.99;51.72
67038;BME280;53940;53.204;6.590;2024-03-17T02:31:58;102246.94;;;22.00;51.67
67038;BME280;53940;53.204;6.590;2024-03-17T02:34:58;102245.97;;;22.01;51.51
67038;BME280;53940;53.204;6.590;2024-03-17T02:37:59;102249.41;;;22.03;51.43
67038;BME280;53940;53.204;6.590;2024-03-17T02:41:00;102244.78;;;22.05;51.20
67038;BME280;53940;53.204;6.590;2024-03-17T02:44:00;102238.44;;;22.06;50.91
67038;BME280;53940;53.204;6.590;2024-03-17T02:47:01;102239.19;;;22.08;50.87
67038;BME280;53940;53.204;6.590;2024-03-17T02:50:04;102239.06;;;22.10;50.83
67038;BME280;53940;53.204;6.590;2024-03-17T02:53:05;102243.47;;;22.11;50.77
67038;BME280;53940;53.204;6.590;2024-03-17T02:56:05;102241.53;;;22.13;50.59
67038;BME280;53940;53.204;6.590;2024-03-17T02:59:06;102239.47;;;22.16;50.73
67038;BME280;53940;53.204;6.590;2024-03-17T03:02:07;102245.56;;;22.18;50.58
67038;BME280;53940;53.204;6.590;2024-03-17T03:05:07;102248.03;;;22.21;50.34
67038;BME280;53940;53.204;6.590;2024-03-17T03:08:08;102236.31;;;22.23;50.48
67038;BME280;53940;53.204;6.590;2024-03-17T03:11:09;102245.00;;;22.26;50.15
67038;BME280;53940;53.204;6.590;2024-03-17T03:14:13;102234.13;;;22.28;50.13
67038;BME280;53940;53.204;6.590;2024-03-17T03:17:13;102233.88;;;22.31;50.11
67038;BME280;53940;53.204;6.590;2024-03-17T03:20:13;102233.66;;;22.34;50.13
67038;BME280;53940;53.204;6.590;2024-03-17T03:23:14;102239.78;;;22.36;50.20
67038;BME280;53940;53.204;6.590;2024-03-17T03:26:14;102232.34;;;22.40;50.12
67038;BME280;53940;53.204;6.590;2024-03-17T03:29:14;102232.13;;;22.43;50.40
67038;BME280;53940;53.204;6.590;2024-03-17T03:32:15;102224.78;;;22.45;50.42
67038;BME280;53940;53.204;6.590;2024-03-17T03:35:15;102230.78;;;22.48;50.21
67038;BME280;53940;53.204;6.590;2024-03-17T03:38:17;102225.22;;;22.52;50.37
67038;BME280;53940;53.204;6.590;2024-03-17T03:41:18;102229.34;;;22.56;50.35
67038;BME280;53940;53.204;6.590;2024-03-17T03:44:19;102236.31;;;22.58;50.30
67038;BME280;53940;53.204;6.590;2024-03-17T03:47:19;102229.84;;;22.61;50.33
67038;BME280;53940;53.204;6.590;2024-03-17T03:50:21;102226.19;;;22.62;50.33
67038;BME280;53940;53.204;6.590;2024-03-17T03:53:21;102222.31;;;22.66;50.12
67038;BME280;53940;53.204;6.590;2024-03-17T03:56:22;102221.22;;;22.69;50.14
67038;BME280;53940;53.204;6.590;2024-03-17T03:59:24;102214.75;;;22.71;50.30
67038;BME280;53940;53.204;6.590;2024-03-17T04:02:24;102218.16;;;22.73;50.18
67038;BME280;53940;53.204;6.590;2024-03-17T04:05:27;102216.22;;;22.75;50.23
67038;BME280;53940;53.204;6.590;2024-03-17T04:08:28;102213.28;;;22.79;50.14
67038;BME280;53940;53.204;6.590;2024-03-17T04:11:28;102208.63;;;22.81;50.10
67038;BME280;53940;53.204;6.590;2024-03-17T04:14:29;102211.19;;;22.82;50.37
67038;BME280;53940;53.204;6.590;2024-03-17T04:17:30;102203.03;;;22.84;50.28
67038;BME280;53940;53.204;6.590;2024-03-17T04:20:30;102209.13;;;22.86;50.15
67038;BME280;53940;53.204;6.590;2024-03-17T04:23:31;102213.50;;;22.87;50.00
67038;BME280;53940;53.204;6.590;2024-03-17T04:26:34;102218.66;;;22.90;50.02
67038;BME280;53940;53.204;6.590;2024-03-17T04:29:35;102219.50;;;22.91;50.27
67038;BME280;53940;53.204;6.590;2024-03-17T04:32:35;102222.06;;;22.92;50.10
67038;BME280;53940;53.204;6.590;2024-03-17T04:35:36;102223.78;;;22.93;50.09
67038;BME280;53940;53.204;6.590;2024-03-17T04:38:37;102220.16;;;22.94;50.10
67038;BME280;53940;53.204;6.590;2024-03-17T04:41:37;102215.59;;;22.95;50.04
67038;BME280;53940;53.204;6.590;2024-03-17T04:44:41;102218.19;;;22.96;50.07
67038;BME280;53940;53.204;6.590;2024-03-17T04:47:42;102214.50;;;22.97;50.21
67038;BME280;53940;53.204;6.590;2024-03-17T04:50:42;102208.16;;;22.98;50.19
67038;BME280;53940;53.204;6.590;2024-03-17T04:53:42;102208.16;;;22.98;50.14
67038;BME280;53940;53.204;6.590;2024-03-17T04:56:43;102205.34;;;23.00;50.13
67038;BME280;53940;53.204;6.590;2024-03-17T04:59:43;102204.38;;;23.01;50.18
67038;BME280;53940;53.204;6.590;2024-03-17T05:02:44;102194.47;;;23.01;50.13
67038;BME280;53940;53.204;6.590;2024-03-17T05:05:44;102196.19;;;23.02;50.05
67038;BME280;53940;53.204;6.590;2024-03-17T05:08:45;102194.47;;;23.01;50.06
67038;BME280;53940;53.204;6.590;2024-03-17T05:11:45;102194.47;;;23.01;50.11
67038;BME280;53940;53.204;6.590;2024-03-17T05:14:46;102183.56;;;23.03;50.19
67038;BME280;53940;53.204;6.590;2024-03-17T05:17:46;102180.06;;;23.02;49.81
67038;BME280;53940;53.204;6.590;2024-03-17T05:20:47;102185.44;;;23.02;50.10
67038;BME280;53940;53.204;6.590;2024-03-17T05:23:49;102192.50;;;23.04;50.09
67038;BME280;53940;53.204;6.590;2024-03-17T05:26:50;102186.28;;;23.03;50.09
67038;BME280;53940;53.204;6.590;2024-03-17T05:29:50;102184.56;;;23.02;50.02
67038;BME280;53940;53.204;6.590;2024-03-17T05:32:51;102180.06;;;23.02;50.06
67038;BME280;53940;53.204;6.590;2024-03-17T05:35:57;102179.19;;;23.02;50.11
67038;BME280;53940;53.204;6.590;2024-03-17T05:38:58;102180.06;;;23.02;50.13
67038;BME280;53940;53.204;6.590;2024-03-17T05:41:59;102179.19;;;23.02;50.15
67038;BME280;53940;53.204;6.590;2024-03-17T05:45:00;102181.03;;;23.01;50.04
67038;BME280;53940;53.204;6.590;2024-03-17T05:48:00;102185.44;;;23.02;50.19
67038;BME280;53940;53.204;6.590;2024-03-17T05:51:11;102189.09;;;23.01;50.12
67038;BME280;53940;53.204;6.590;2024-03-17T05:54:12;102196.31;;;23.01;50.34
67038;BME280;53940;53.204;6.590;2024-03-17T05:57:12;102189.09;;;23.01;50.25
67038;BME280;53940;53.204;6.590;2024-03-17T06:00:14;102184.72;;;23.00;50.21
67038;BME280;53940;53.204;6.590;2024-03-17T06:03:15;102183.72;;;23.01;50.23
67038;BME280;53940;53.204;6.590;2024-03-17T06:06:15;102187.41;;;23.00;50.23
67038;BME280;53940;53.204;6.590;2024-03-17T06:09:16;102185.53;;;23.01;50.34
67038;BME280;53940;53.204;6.590;2024-03-17T06:12:19;102198.16;;;23.00;50.31
67038;BME280;53940;53.204;6.590;2024-03-17T06:15:19;102192.78;;;23.00;50.30
67038;BME280;53940;53.204;6.590;2024-03-17T06:18:21;102192.88;;;22.99;50.33
67038;BME280;53940;53.204;6.590;2024-03-17T06:21:21;102202.66;;;23.00;50.31
67038;BME280;53940;53.204;6.590;2024-03-17T06:24:22;102192.03;;;22.98;50.32
67038;BME280;53940;53.204;6.590;2024-03-17T06:27:24;102191.03;;;22.99;50.34
67038;BME280;53940;53.204;6.590;2024-03-17T06:30:25;102196.41;;;22.99;50.33
67038;BME280;53940;53.204;6.590;2024-03-17T06:33:26;102198.25;;;22.99;50.34
67038;BME280;53940;53.204;6.590;2024-03-17T06:36:28;102194.72;;;22.98;50.28
67038;BME280;53940;53.204;6.590;2024-03-17T06:39:28;102193.88;;;22.98;50.34
67038;BME280;53940;53.204;6.590;2024-03-17T06:42:30;102200.09;;;22.98;50.28
67038;BME280;53940;53.204;6.590;2024-03-17T06:45:30;102200.09;;;22.98;50.35
67038;BME280;53940;53.204;6.590;2024-03-17T06:48:30;102193.88;;;22.98;50.51
67038;BME280;53940;53.204;6.590;2024-03-17T06:51:31;102200.19;;;22.97;50.53
67038;BME280;53940;53.204;6.590;2024-03-17T06:54:31;102195.81;;;22.96;50.35
67038;BME280;53940;53.204;6.590;2024-03-17T06:57:34;102202.06;;;22.96;50.37
67038;BME280;53940;53.204;6.590;2024-03-17T07:00:34;102196.69;;;22.96;50.48
67038;BME280;53940;53.204;6.590;2024-03-17T07:03:34;102200.19;;;22.97;50.30
67038;BME280;53940;53.204;6.590;2024-03-17T07:06:35;102194.00;;;22.96;50.37
67038;BME280;53940;53.204;6.590;2024-03-17T07:09:35;102203.75;;;22.97;50.43
67038;BME280;53940;53.204;6.590;2024-03-17T07:12:36;102212.53;;;22.99;50.44
67038;BME280;53940;53.204;6.590;2024-03-17T07:15:36;102201.78;;;22.99;50.32
67038;BME280;53940;53.204;6.590;2024-03-17T07:18:37;102208.91;;;23.00;50.41
67038;BME280;53940;53.204;6.590;2024-03-17T07:21:37;102202.53;;;23.01;50.26
67038;BME280;53940;53.204;6.590;2024-03-17T07:24:37;102199.84;;;23.01;50.33
67038;BME280;53940;53.204;6.590;2024-03-17T07:27:38;102209.50;;;23.04;50.33
67038;BME280;53940;53.204;6.590;2024-03-17T07:30:46;102215.72;;;23.05;50.10
67038;BME280;53940;53.204;6.590;2024-03-17T07:33:46;102205.72;;;23.07;50.33
67038;BME280;53940;53.204;6.590;2024-03-17T07:36:48;102200.47;;;23.05;49.47
67038;BME280;53940;53.204;6.590;2024-03-17T07:39:48;102200.47;;;23.05;49.39
67038;BME280;53940;53.204;6.590;2024-03-17T07:42:49;102194.22;;;23.05;49.29
67038;BME280;53940;53.204;6.590;2024-03-17T07:46:06;102190.81;;;23.02;49.24
67038;BME280;53940;53.204;6.590;2024-03-17T07:49:07;102188.00;;;23.04;49.42
67038;BME280;53940;53.204;6.590;2024-03-17T07:52:09;102186.16;;;23.05;49.39
67038;BME280;53940;53.204;6.590;2024-03-17T07:55:09;102187.84;;;23.06;49.40
67038;BME280;53940;53.204;6.590;2024-03-17T07:58:09;102184.34;;;23.05;49.37
67038;BME280;53940;53.204;6.590;2024-03-17T08:01:12;102183.47;;;23.05;49.26
67038;BME280;53940;53.204;6.590;2024-03-17T08:04:13;102181.75;;;23.04;49.37
67038;BME280;53940;53.204;6.590;2024-03-17T08:07:13;102177.25;;;23.04;49.50
67038;BME280;53940;53.204;6.590;2024-03-17T08:10:14;102181.75;;;23.04;49.42
67038;BME280;53940;53.204;6.590;2024-03-17T08:13:16;102188.84;;;23.05;49.26
67038;BME280;53940;53.204;6.590;2024-03-17T08:16:16;102188.84;;;23.05;49.32
67038;BME280;53940;53.204;6.590;2024-03-17T08:19:17;102190.69;;;23.04;48.88
67038;BME280;53940;53.204;6.590;2024-03-17T08:22:17;102189.81;;;23.04;48.97
67038;BME280;53940;53.204;6.590;2024-03-17T08:25:18;102194.22;;;23.05;49.11
67038;BME280;53940;53.204;6.590;2024-03-17T08:28:18;102188.72;;;23.06;49.18
67038;BME280;53940;53.204;6.590;2024-03-17T08:31:18;102194.97;;;23.07;49.18
67038;BME280;53940;53.204;6.590;2024-03-17T08:34:19;102194.00;;;23.08;49.25
67038;BME280;53940;53.204;6.590;2024-03-17T08:37:19;102197.66;;;23.07;49.25
67038;BME280;53940;53.204;6.590;2024-03-17T08:40:20;102198.38;;;23.09;49.24
67038;BME280;53940;53.204;6.590;2024-03-17T08:43:22;102197.50;;;23.08;49.45
67038;BME280;53940;53.204;6.590;2024-03-17T08:46:23;102193.84;;;23.09;49.40
67038;BME280;53940;53.204;6.590;2024-03-17T08:49:23;102200.09;;;23.10;49.31
67038;BME280;53940;53.204;6.590;2024-03-17T08:52:24;102203.66;;;23.10;49.33
67038;BME280;53940;53.204;6.590;2024-03-17T08:55:24;102204.47;;;23.11;49.47
67038;BME280;53940;53.204;6.590;2024-03-17T08:58:25;102198.13;;;23.12;49.42
67038;BME280;53940;53.204;6.590;2024-03-17T09:01:25;102198.13;;;23.12;49.49
67038;BME280;53940;53.204;6.590;2024-03-17T09:04:27;102195.44;;;23.12;49.38
67038;BME280;53940;53.204;6.590;2024-03-17T09:07:27;102204.47;;;23.11;49.29
67038;BME280;53940;53.204;6.590;2024-03-17T09:10:28;102198.38;;;23.09;49.40
67038;BME280;53940;53.204;6.590;2024-03-17T09:13:28;102201.06;;;23.09;49.38
67038;BME280;53940;53.204;6.590;2024-03-17T09:16:29;102192.28;;;23.07;49.44
67038;BME280;53940;53.204;6.590;2024-03-17T09:19:30;102196.78;;;23.06;49.59
67038;BME280;53940;53.204;6.590;2024-03-17T09:22:31;102187.03;;;23.05;49.50
67038;BME280;53940;53.204;6.590;2024-03-17T09:25:31;102190.69;;;23.04;49.51
67038;BME280;53940;53.204;6.590;2024-03-17T09:28:32;102185.44;;;23.02;49.46
67038;BME280;53940;53.204;6.590;2024-03-17T09:31:33;102181.88;;;23.02;49.55
67038;BME280;53940;53.204;6.590;2024-03-17T09:34:35;102194.47;;;23.01;49.53
67038;BME280;53940;53.204;6.590;2024-03-17T09:37:35;102185.66;;;22.99;49.70
67038;BME280;53940;53.204;6.590;2024-03-17T09:40:36;102183.97;;;22.98;49.63
67038;BME280;53940;53.204;6.590;2024-03-17T09:43:37;102184.94;;;22.97;49.72
67038;BME280;53940;53.204;6.590;2024-03-17T09:46:37;102186.75;;;22.97;49.84
67038;BME280;53940;53.204;6.590;2024-03-17T09:49:37;102185.06;;;22.96;49.99
67038;BME280;53940;53.204;6.590;2024-03-17T09:52:38;102183.34;;;22.95;49.98
67038;BME280;53940;53.204;6.590;2024-03-17T09:55:39;102183.47;;;22.93;49.98
67038;BME280;53940;53.204;6.590;2024-03-17T09:58:40;102178.22;;;22.92;50.10
67038;BME280;53940;53.204;6.590;2024-03-17T10:01:40;102182.75;;;22.91;50.18
67038;BME280;53940;53.204;6.590;2024-03-17T10:04:43;102182.75;;;22.91;50.15
67038;BME280;53940;53.204;6.590;2024-03-17T10:07:43;102177.47;;;22.89;50.23
67038;BME280;53940;53.204;6.590;2024-03-17T10:10:43;102178.56;;;22.87;50.35
67038;BME280;53940;53.204;6.590;2024-03-17T10:13:44;102175.06;;;22.86;50.33
67038;BME280;53940;53.204;6.590;2024-03-17T10:16:45;102183.22;;;22.85;50.34
67038;BME280;53940;53.204;6.590;2024-03-17T10:19:45;102175.16;;;22.85;50.37
67038;BME280;53940;53.204;6.590;2024-03-17T10:23:00;102175.28;;;22.83;50.38
67038;BME280;53940;53.204;6.590;2024-03-17T10:26:01;102175.28;;;22.83;50.32
67038;BME280;53940;53.204;6.590;2024-03-17T10:29:01;102164.53;;;22.83;50.30
67038;BME280;53940;53.204;6.590;2024-03-17T10:32:03;102165.63;;;22.81;50.38
67038;BME280;53940;53.204;6.590;2024-03-17T10:35:34;102161.22;;;22.80;50.50
67038;BME280;53940;53.204;6.590;2024-03-17T10:38:34;102158.53;;;22.80;50.62
67038;BME280;53940;53.204;6.590;2024-03-17T10:41:35;102159.53;;;22.79;50.39
67038;BME280;53940;53.204;6.590;2024-03-17T10:44:36;102147.06;;;22.78;50.69
67038;BME280;53940;53.204;6.590;2024-03-17T10:47:37;102148.88;;;22.77;50.57
67038;BME280;53940;53.204;6.590;2024-03-17T10:50:39;102148.06;;;22.77;50.62
67038;BME280;53940;53.204;6.590;2024-03-17T10:53:40;102140.97;;;22.75;50.64
67038;BME280;53940;53.204;6.590;2024-03-17T10:56:41;102147.19;;;22.76;50.78
67038;BME280;53940;53.204;6.590;2024-03-17T10:59:47;102139.25;;;22.74;50.92
67038;BME280;53940;53.204;6.590;2024-03-17T11:02:52;102131.31;;;22.73;50.84
67038;BME280;53940;53.204;6.590;2024-03-17T11:05:55;102130.47;;;22.72;50.75
67038;BME280;53940;53.204;6.590;2024-03-17T11:08:57;102132.16;;;22.73;50.91
67038;BME280;53940;53.204;6.590;2024-03-17T11:11:58;102132.28;;;22.72;50.71
67038;BME280;53940;53.204;6.590;2024-03-17T11:21:22;102127.03;;;22.70;50.96
67038;BME280;53940;53.204;6.590;2024-03-17T11:24:27;102123.38;;;22.71;50.66
67038;BME280;53940;53.204;6.590;2024-03-17T11:27:39;102114.59;;;22.69;51.28
67038;BME280;53940;53.204;6.590;2024-03-17T11:36:40;102113.72;;;22.69;50.77
67038;BME280;53940;53.204;6.590;2024-03-17T11:39:54;102103.97;;;22.68;50.92
67038;BME280;53940;53.204;6.590;2024-03-17T11:43:02;102103.97;;;22.68;50.95
67038;BME280;53940;53.204;6.590;2024-03-17T11:46:05;102100.41;;;22.67;50.88
67038;BME280;53940;53.204;6.590;2024-03-17T11:49:05;102090.63;;;22.66;50.79
67038;BME280;53940;53.204;6.590;2024-03-17T11:52:11;102085.25;;;22.66;50.98
67038;BME280;53940;53.204;6.590;2024-03-17T11:55:17;102075.50;;;22.65;50.84
67038;BME280;53940;53.204;6.590;2024-03-17T11:58:18;102079.03;;;22.66;50.78
67038;BME280;53940;53.204;6.590;2024-03-17T12:01:20;102070.13;;;22.65;50.86
67038;BME280;53940;53.204;6.590;2024-03-17T12:04:21;102070.13;;;22.65;50.88
67038;BME280;53940;53.204;6.590;2024-03-17T12:07:23;102075.50;;;22.65;50.85
67038;BME280;53940;53.204;6.590;2024-03-17T12:10:23;102073.78;;;22.64;50.82
67038;BME280;53940;53.204;6.590;2024-03-17T12:13:32;102072.94;;;22.64;51.01
67038;BME280;53940;53.204;6.590;2024-03-17T12:16:33;102072.94;;;22.64;50.83
67038;BME280;53940;53.204;6.590;2024-03-17T12:19:34;102073.78;;;22.64;50.78
67038;BME280;53940;53.204;6.590;2024-03-17T12:22:35;102079.16;;;22.64;50.80
67038;BME280;53940;53.204;6.590;2024-03-17T12:25:37;102068.41;;;22.64;50.89
67038;BME280;53940;53.204;6.590;2024-03-17T12:28:37;102064.03;;;22.63;51.01
67038;BME280;53940;53.204;6.590;2024-03-17T12:31:38;102061.34;;;22.63;50.94
67038;BME280;53940;53.204;6.590;2024-03-17T12:34:39;102053.41;;;22.61;50.91
67038;BME280;53940;53.204;6.590;2024-03-17T12:37:43;102043.50;;;22.62;50.68
67038;BME280;53940;53.204;6.590;2024-03-17T12:40:43;102046.16;;;22.62;50.89
67038;BME280;53940;53.204;6.590;2024-03-17T12:43:50;102040.09;;;22.60;51.00
67038;BME280;53940;53.204;6.590;2024-03-17T12:46:59;102041.78;;;22.61;50.78
67038;BME280;53940;53.204;6.590;2024-03-17T12:50:01;102039.09;;;22.61;51.01
67038;BME280;53940;53.204;6.590;2024-03-17T12:53:02;102033.72;;;22.61;50.81
67038;BME280;53940;53.204;6.590;2024-03-17T12:56:02;102034.72;;;22.60;50.69
67038;BME280;53940;53.204;6.590;2024-03-17T12:59:21;102025.78;;;22.59;50.62
67038;BME280;53940;53.204;6.590;2024-03-17T13:02:43;102012.34;;;22.59;50.80
67038;BME280;53940;53.204;6.590;2024-03-17T13:05:46;102019.56;;;22.59;50.76
67038;BME280;53940;53.204;6.590;2024-03-17T13:08:47;102014.19;;;22.59;50.62
67038;BME280;53940;53.204;6.590;2024-03-17T13:11:49;102004.16;;;22.61;50.70
67038;BME280;53940;53.204;6.590;2024-03-17T13:14:49;101999.66;;;22.61;50.91
67038;BME280;53940;53.204;6.590;2024-03-17T13:17:49;102000.50;;;22.62;50.82
67038;BME280;53940;53.204;6.590;2024-03-17T13:20:50;101996.00;;;22.63;50.95
67038;BME280;53940;53.204;6.590;2024-03-17T13:23:51;101991.50;;;22.63;50.79
67038;BME280;53940;53.204;6.590;2024-03-17T13:26:52;101988.81;;;22.63;50.80
67038;BME280;53940;53.204;6.590;2024-03-17T13:29:55;101980.75;;;22.63;50.96
67038;BME280;53940;53.204;6.590;2024-03-17T13:32:56;101977.06;;;22.64;51.04
67038;BME280;53940;53.204;6.590;2024-03-17T13:36:00;101978.78;;;22.65;50.85
67038;BME280;53940;53.204;6.590;2024-03-17T13:39:00;101977.06;;;22.64;50.90
67038;BME280;53940;53.204;6.590;2024-03-17T13:42:00;101977.06;;;22.64;50.83
67038;BME280;53940;53.204;6.590;2024-03-17T13:45:03;101973.41;;;22.65;50.79
67038;BME280;53940;53.204;6.590;2024-03-17T13:48:05;101974.22;;;22.66;51.00
67038;BME280;53940;53.204;6.590;2024-03-17T13:51:07;101957.28;;;22.65;51.01
67038;BME280;53940;53.204;6.590;2024-03-17T13:54:08;101958.13;;;22.66;51.08
67038;BME280;53940;53.204;6.590;2024-03-17T13:57:09;101943.84;;;22.65;50.76
67038;BME280;53940;53.204;6.590;2024-03-17T14:00:09;101946.53;;;22.65;50.88
67038;BME280;53940;53.204;6.590;2024-03-17T14:03:10;101947.38;;;22.66;50.83
67038;BME280;53940;53.204;6.590;2024-03-17T14:06:10;101949.22;;;22.65;50.71
67038;BME280;53940;53.204;6.590;2024-03-17T14:09:12;101942.16;;;22.64;50.76
67038;BME280;53940;53.204;6.590;2024-03-17T14:12:12;101942.97;;;22.65;50.85
67038;BME280;53940;53.204;6.590;2024-03-17T14:15:14;101948.50;;;22.63;50.86
67038;BME280;53940;53.204;6.590;2024-03-17T14:18:14;101937.00;;;22.61;50.96
67038;BME280;53940;53.204;6.590;2024-03-17T14:21:15;101934.31;;;22.61;50.87
67038;BME280;53940;53.204;6.590;2024-03-17T14:24:15;101932.63;;;22.60;50.85
67038;BME280;53940;53.204;6.590;2024-03-17T14:27:15;101928.34;;;22.57;50.98
67038;BME280;53940;53.204;6.590;2024-03-17T14:30:18;101922.09;;;22.57;50.83
67038;BME280;53940;53.204;6.590;2024-03-17T14:33:19;101920.41;;;22.56;50.91
67038;BME280;53940;53.204;6.590;2024-03-17T14:36:19;101924.94;;;22.55;51.05
67038;BME280;53940;53.204;6.590;2024-03-17T14:39:26;101916.13;;;22.53;51.17
67038;BME280;53940;53.204;6.590;2024-03-17T14:42:29;101908.22;;;22.52;51.07
67038;BME280;53940;53.204;6.590;2024-03-17T14:45:29;101907.31;;;22.51;50.82
67038;BME280;53940;53.204;6.590;2024-03-17T14:48:30;101908.31;;;22.50;51.04
67038;BME280;53940;53.204;6.590;2024-03-17T14:51:31;101900.38;;;22.48;50.81
67038;BME280;53940;53.204;6.590;2024-03-17T14:54:31;101907.59;;;22.48;50.91
67038;BME280;53940;53.204;6.590;2024-03-17T14:57:32;101899.66;;;22.46;50.96
67038;BME280;53940;53.204;6.590;2024-03-17T15:00:32;101892.59;;;22.45;51.12
67038;BME280;53940;53.204;6.590;2024-03-17T15:03:33;101889.16;;;22.43;51.11
67038;BME280;53940;53.204;6.590;2024-03-17T15:06:33;101883.78;;;22.43;50.79
67038;BME280;53940;53.204;6.590;2024-03-17T15:09:35;101886.47;;;22.43;51.04
67038;BME280;53940;53.204;6.590;2024-03-17T15:12:35;101882.06;;;22.42;51.01
67038;BME280;53940;53.204;6.590;2024-03-17T15:15:36;101875.88;;;22.42;50.93
67038;BME280;53940;53.204;6.590;2024-03-17T15:18:37;101878.66;;;22.40;50.97
67038;BME280;53940;53.204;6.590;2024-03-17T15:21:38;101867.94;;;22.40;51.14
67038;BME280;53940;53.204;6.590;2024-03-17T15:24:39;101869.75;;;22.40;51.23
67038;BME280;53940;53.204;6.590;2024-03-17T15:27:43;101862.69;;;22.39;51.07
67038;BME280;53940;53.204;6.590;2024-03-17T15:30:45;101864.50;;;22.38;51.11
67038;BME280;53940;53.204;6.590;2024-03-17T15:33:45;101869.03;;;22.38;51.12
67038;BME280;53940;53.204;6.590;2024-03-17T15:36:46;101863.66;;;22.38;51.34
67038;BME280;53940;53.204;6.590;2024-03-17T15:39:46;101868.16;;;22.37;51.13
67038;BME280;53940;53.204;6.590;2024-03-17T15:42:47;101868.16;;;22.37;51.35
67038;BME280;53940;53.204;6.590;2024-03-17T15:45:48;101854.03;;;22.35;51.31
67038;BME280;53940;53.204;6.590;2024-03-17T15:48:49;101851.34;;;22.35;51.25
67038;BME280;53940;53.204;6.590;2024-03-17T15:51:50;101849.63;;;22.34;51.35
67038;BME280;53940;53.204;6.590;2024-03-17T15:54:50;101841.59;;;22.34;51.41
67038;BME280;53940;53.204;6.590;2024-03-17T15:57:50;101841.59;;;22.34;51.14
67038;BME280;53940;53.204;6.590;2024-03-17T16:00:52;101839.00;;;22.32;51.14